createdAt,value
2018-12-28T00:06:50.177Z,100.0
2018-12-28T00:08:57.262Z,100.0
2018-12-28T00:10:50.510Z,100.0
2018-12-28T00:12:50.555Z,100.0
2018-12-28T00:14:50.480Z,100.0
2018-12-28T00:16:50.684Z,100.0
2018-12-28T00:18:50.757Z,100.0
2018-12-28T00:20:50.699Z,100.0
2018-12-28T00:22:50.720Z,100.0
2018-12-28T00:24:49.823Z,100.0
2018-12-28T00:26:50.058Z,100.0
2018-12-28T00:28:50.024Z,100.0
2018-12-28T00:48:49.791Z,99.8
2018-12-28T00:50:49.846Z,99.5
2018-12-28T00:52:49.885Z,99.4
2018-12-28T00:54:49.946Z,99.6
2018-12-28T00:56:50.153Z,99.5
2018-12-28T00:58:50.215Z,99.5
2018-12-28T01:00:50.263Z,99.8
2018-12-28T01:02:50.267Z,100.0
2018-12-28T01:04:50.524Z,99.2
2018-12-28T01:06:50.753Z,99.3
2018-12-28T01:08:50.721Z,99.1
2018-12-28T01:10:50.768Z,99.0
2018-12-28T01:12:49.785Z,99.2
2018-12-28T01:14:49.763Z,99.8
2018-12-28T01:16:50.022Z,100.0
2018-12-28T01:18:50.129Z,100.0
2018-12-28T01:20:50.132Z,100.0
2018-12-28T01:22:50.191Z,100.0
2018-12-28T01:24:50.239Z,100.0
2018-12-28T01:26:50.440Z,100.0
2018-12-28T01:28:50.431Z,100.0
2018-12-28T01:30:50.424Z,100.0
2018-12-28T01:32:50.457Z,100.0
2018-12-28T01:34:50.725Z,100.0
2018-12-28T01:36:49.953Z,100.0
2018-12-28T01:38:50.021Z,100.0
2018-12-28T01:40:49.964Z,100.0
2018-12-28T01:42:49.948Z,100.0
2018-12-28T01:44:50.028Z,100.0
2018-12-28T01:46:50.697Z,100.0
2018-12-28T01:48:50.632Z,100.0
2018-12-28T01:50:50.639Z,100.0
2018-12-28T01:52:50.588Z,99.6
2018-12-28T01:54:50.604Z,100.0
2018-12-28T01:56:49.842Z,100.0
2018-12-28T01:58:49.809Z,100.0
2018-12-28T02:00:49.939Z,100.0
2018-12-28T02:02:49.910Z,100.0
2018-12-28T02:04:50.397Z,100.0
2018-12-28T02:06:50.495Z,100.0
2018-12-28T02:08:50.448Z,100.0
2018-12-28T02:10:50.471Z,100.0
2018-12-28T02:12:50.485Z,100.0
2018-12-28T02:14:50.538Z,100.0
2018-12-28T02:16:49.982Z,100.0
2018-12-28T02:18:50.065Z,100.0
2018-12-28T02:20:50.203Z,100.0
2018-12-28T02:22:50.456Z,100.0
2018-12-28T02:24:50.604Z,100.0
2018-12-28T02:26:49.817Z,100.0
2018-12-28T02:28:49.870Z,100.0
2018-12-28T02:30:50.040Z,100.0
2018-12-28T02:32:50.072Z,100.0
2018-12-28T02:34:50.388Z,100.0
2018-12-28T02:36:50.659Z,100.0
2018-12-28T02:38:49.762Z,100.0
2018-12-28T02:40:49.911Z,100.0
2018-12-28T02:42:49.907Z,100.0
2018-12-28T02:44:49.940Z,100.0
2018-12-28T02:46:50.229Z,100.0
2018-12-28T02:48:50.246Z,100.0
2018-12-28T02:50:50.355Z,100.0
2018-12-28T02:52:50.321Z,100.0
2018-12-28T02:54:50.257Z,100.0
2018-12-28T02:56:50.517Z,100.0
2018-12-28T02:58:50.549Z,100.0
2018-12-28T03:00:50.481Z,100.0
2018-12-28T03:02:50.669Z,100.0
2018-12-28T03:04:49.954Z,100.0
2018-12-28T03:06:50.336Z,100.0
2018-12-28T03:08:50.047Z,100.0
2018-12-28T03:10:50.074Z,100.0
2018-12-28T03:12:50.128Z,100.0
2018-12-28T03:14:50.168Z,100.0
2018-12-28T03:16:50.392Z,100.0
2018-12-28T03:18:50.407Z,100.0
2018-12-28T03:20:50.446Z,100.0
2018-12-28T03:22:50.467Z,100.0
2018-12-28T03:24:50.554Z,100.0
2018-12-28T03:26:50.665Z,100.0
2018-12-28T03:28:50.734Z,100.0
2018-12-28T03:30:50.816Z,100.0
2018-12-28T03:32:49.900Z,100.0
2018-12-28T03:34:50.232Z,100.0
2018-12-28T03:36:50.370Z,100.0
2018-12-28T03:38:50.410Z,100.0
2018-12-28T03:40:50.372Z,100.0
2018-12-28T03:42:50.443Z,100.0
2018-12-28T03:44:50.468Z,100.0
2018-12-28T03:46:50.604Z,100.0
2018-12-28T03:48:50.619Z,100.0
2018-12-28T03:50:50.576Z,100.0
2018-12-28T03:56:50.524Z,100.0
2018-12-28T03:58:50.513Z,100.0
2018-12-28T04:00:50.540Z,100.0
2018-12-28T04:02:50.621Z,100.0
2018-12-28T04:04:49.972Z,100.0
